Time;durP1;ratioP1;P1;durP2;ratioP2;P2;SDS_P1;SDS_P2;PMS_P1;PMS_P2;Temp;Humidity;BMP_temperature;BMP_pressure;BME280_temperature;BME280_humidity;BME280_pressure;Samples;Min_cycle;Max_cycle;Signal;HPM_P1;HPM_P2
2022/10/13 00:01:30;;;;;;;27.10;15.25;;;;;;;11.83;81.75;101810.97;4951270;28;20035;-57
2022/10/13 00:03:55;;;;;;;29.15;17.20;;;;;;;11.80;81.59;101809.31;4955682;28;20055;-57
2022/10/13 00:06:24;;;;;;;24.35;16.02;;;;;;;11.78;81.86;101810.34;4941811;29;20035;-57
2022/10/13 00:08:49;;;;;;;24.35;15.35;;;;;;;11.78;81.57;101808.53;4950145;29;20039;-57
2022/10/13 00:11:21;;;;;;;23.85;15.68;;;;;;;11.73;81.85;101805.22;4951873;28;20035;-57
2022/10/13 00:13:48;;;;;;;23.40;15.75;;;;;;;11.76;82.10;101798.88;4983278;28;20063;-58
2022/10/13 00:16:15;;;;;;;26.80;16.67;;;;;;;11.74;82.26;101792.78;4950889;29;20089;-58
2022/10/13 00:18:41;;;;;;;22.55;15.38;;;;;;;11.74;82.11;101793.66;4950316;28;20023;-57
2022/10/13 00:21:09;;;;;;;25.88;15.70;;;;;;;11.70;82.32;101791.22;4966588;28;20058;-56
2022/10/13 00:23:36;;;;;;;28.48;16.83;;;;;;;11.71;82.30;101784.97;4961326;28;20038;-57
2022/10/13 00:26:04;;;;;;;26.95;16.58;;;;;;;11.69;82.33;101784.16;4964586;28;20048;-57
2022/10/13 00:28:30;;;;;;;23.63;16.15;;;;;;;11.65;82.41;101786.16;4986319;28;20354;-57
2022/10/13 00:30:56;;;;;;;23.33;16.42;;;;;;;11.59;82.51;101774.00;4989992;28;20113;-57
2022/10/13 00:33:23;;;;;;;24.17;16.77;;;;;;;11.59;82.59;101778.47;4973562;28;20477;-56
2022/10/13 00:35:51;;;;;;;24.73;15.43;;;;;;;11.59;82.92;101787.31;4989964;28;20038;-57
2022/10/13 00:38:18;;;;;;;26.25;16.80;;;;;;;11.60;82.96;101782.84;4974226;28;20049;-56
2022/10/13 00:40:44;;;;;;;23.95;16.73;;;;;;;11.54;83.07;101776.03;4989457;28;20075;-57
2022/10/13 00:43:18;;;;;;;26.92;16.42;;;;;;;11.54;83.13;101769.84;4989390;28;20026;-57
2022/10/13 00:45:44;;;;;;;25.33;16.58;;;;;;;11.56;83.40;101776.81;4990622;28;20030;-57
2022/10/13 00:48:10;;;;;;;25.33;16.15;;;;;;;11.56;83.17;101782.16;4991263;28;20050;-57
2022/10/13 00:50:39;;;;;;;27.52;16.63;;;;;;;11.55;83.46;101777.75;4990451;28;20066;-57
2022/10/13 00:53:05;;;;;;;26.67;16.08;;;;;;;11.55;83.42;101776.91;4991292;28;20113;-56
2022/10/13 00:55:33;;;;;;;31.10;17.02;;;;;;;11.39;83.46;101744.88;5007612;28;20469;-57
2022/10/13 00:58:03;;;;;;;31.48;15.65;;;;;;;11.51;83.67;101768.22;4993750;28;20560;-57
2022/10/13 01:00:29;;;;;;;28.85;16.55;;;;;;;11.51;83.31;101762.88;4973814;28;20030;-56
2022/10/13 01:02:54;;;;;;;26.17;16.55;;;;;;;11.57;83.53;101778.53;4989966;28;20036;-56
2022/10/13 01:05:21;;;;;;;31.40;16.73;;;;;;;11.57;83.37;101781.19;4989599;28;20070;-57
2022/10/13 01:07:50;;;;;;;31.10;16.80;;;;;;;11.58;83.33;101777.59;5004967;28;20040;-57
2022/10/13 01:10:38;;;;;;;26.10;15.02;;;;;;;11.58;83.34;101777.59;4988877;28;20152;-57
2022/10/13 01:13:15;;;;;;;30.42;16.00;;;;;;;11.57;83.32;101772.34;4953552;28;20127;-56
2022/10/13 01:15:50;;;;;;;24.17;16.10;;;;;;;11.58;83.50;101780.25;4977339;28;20019;-56
2022/10/13 01:18:39;;;;;;;27.90;15.82;;;;;;;11.61;83.65;101771.25;4956425;28;20026;-56
2022/10/13 01:21:56;;;;;;;28.10;15.98;;;;;;;11.64;83.11;101767.56;4988801;28;20468;-57
2022/10/13 01:24:37;;;;;;;29.45;16.25;;;;;;;11.58;83.52;101769.59;4966303;28;20038;-57
2022/10/13 01:27:05;;;;;;;31.52;15.93;;;;;;;11.55;83.85;101771.56;4989626;28;20034;-57
2022/10/13 01:30:15;;;;;;;32.28;16.80;;;;;;;11.59;83.46;101771.34;4989760;28;20034;-57
2022/10/13 01:33:06;;;;;;;27.67;16.98;;;;;;;11.58;83.59;101768.75;4979887;28;20022;-56
2022/10/13 01:35:51;;;;;;;29.73;15.65;;;;;;;11.57;84.27;101767.03;4955734;28;20061;-58
2022/10/13 01:38:51;;;;;;;29.05;16.55;;;;;;;11.59;83.92;101771.34;4956867;28;20041;-56
2022/10/13 01:41:44;;;;;;;30.40;15.73;;;;;;;11.62;84.07;101769.44;4986594;28;20042;-57
2022/10/13 01:44:23;;;;;;;31.00;16.05;;;;;;;11.60;84.40;101772.19;4988501;28;20105;-57
2022/10/13 01:46:51;;;;;;;28.65;16.40;;;;;;;11.57;84.19;101751.91;4989013;28;20037;-57
2022/10/13 01:49:19;;;;;;;31.95;15.60;;;;;;;11.62;84.61;101761.44;4987666;28;20113;-57
2022/10/13 01:51:46;;;;;;;28.65;16.35;;;;;;;11.64;84.63;101751.56;4955741;28;20030;-57
2022/10/13 01:54:12;;;;;;;26.83;16.30;;;;;;;11.61;84.33;101755.25;4982529;28;20056;-56
2022/10/13 01:56:39;;;;;;;27.73;15.98;;;;;;;11.63;84.54;101749.84;4976819;28;20125;-57
2022/10/13 01:59:12;;;;;;;27.52;15.90;;;;;;;11.64;84.59;101751.56;4989427;28;20037;-57
2022/10/13 02:02:01;;;;;;;26.08;15.20;;;;;;;11.69;84.35;101744.19;4988615;28;20042;-57
2022/10/13 02:04:57;;;;;;;29.35;16.55;;;;;;;11.70;84.17;101730.78;4988307;28;20045;-57
2022/10/13 02:07:32;;;;;;;25.42;15.55;;;;;;;11.66;84.59;101734.56;4990047;28;20045;-57
2022/10/13 02:10:03;;;;;;;26.92;14.90;;;;;;;11.68;84.58;101734.50;4989125;28;20039;-57
2022/10/13 02:12:41;;;;;;;30.25;16.10;;;;;;;11.71;84.64;101735.19;4972400;28;20034;-57
2022/10/13 02:15:12;;;;;;;31.08;15.77;;;;;;;11.74;84.55;101734.16;4987710;28;20034;-57
2022/10/13 02:17:39;;;;;;;30.75;15.77;;;;;;;11.65;84.70;101721.31;4989115;28;20030;-57
2022/10/13 02:20:05;;;;;;;32.72;15.13;;;;;;;11.74;85.05;101723.50;4968708;28;20068;-57
2022/10/13 02:22:39;;;;;;;33.92;16.05;;;;;;;11.69;85.25;101718.41;4988812;28;20175;-56
2022/10/13 02:25:06;;;;;;;25.00;15.05;;;;;;;11.71;84.73;101719.19;4988784;28;20038;-56
2022/10/13 02:27:34;;;;;;;27.15;15.73;;;;;;;11.70;85.03;101714.78;4990142;28;20400;-56
2022/10/13 02:29:59;;;;;;;25.45;14.75;;;;;;;11.69;85.06;101712.22;4989046;28;20042;-56
2022/10/13 02:32:25;;;;;;;26.30;15.85;;;;;;;11.70;85.09;101709.47;4962911;28;20041;-56
2022/10/13 02:34:53;;;;;;;23.75;15.20;;;;;;;11.70;85.03;101711.25;4997144;28;20041;-56
2022/10/13 02:37:21;;;;;;;25.10;15.85;;;;;;;11.70;85.39;101711.25;4989350;28;20026;-57
2022/10/13 02:39:46;;;;;;;27.35;15.02;;;;;;;11.67;85.30;101698.97;4988843;28;20030;-57
2022/10/13 02:42:12;;;;;;;26.83;15.80;;;;;;;11.75;85.49;101712.75;4988833;28;20159;-57
2022/10/13 02:44:38;;;;;;;29.63;14.98;;;;;;;11.76;84.99;101708.25;4988889;28;20454;-57
2022/10/13 02:47:04;;;;;;;27.50;16.23;;;;;;;11.78;84.95;101707.25;4987729;28;20032;-57
2022/10/13 02:49:30;;;;;;;19.25;14.27;;;;;;;11.82;85.20;101710.59;4954786;28;20049;-56
2022/10/13 02:51:55;;;;;;;27.92;14.98;;;;;;;11.81;85.05;101704.41;4953384;28;20064;-57
2022/10/13 02:54:23;;;;;;;26.92;15.27;;;;;;;11.80;85.14;101707.19;4987872;28;20097;-57
2022/10/13 02:56:49;;;;;;;24.08;15.02;;;;;;;11.80;84.92;101696.50;4988684;28;20065;-58
2022/10/13 02:59:14;;;;;;;23.50;15.07;;;;;;;11.78;84.79;101695.72;4971499;28;20065;-57
2022/10/13 03:01:43;;;;;;;24.20;14.45;;;;;;;11.82;84.91;101705.25;4950588;28;20030;-57
2022/10/13 03:04:10;;;;;;;22.50;15.38;;;;;;;11.79;85.49;101701.00;4982561;28;20057;-56
2022/10/13 03:06:36;;;;;;;25.33;14.25;;;;;;;11.81;85.20;101706.22;4970851;28;20033;-57
2022/10/13 03:09:04;;;;;;;22.17;15.35;;;;;;;11.79;85.42;101703.66;4970785;28;20038;-57
2022/10/13 03:11:30;;;;;;;21.90;14.45;;;;;;;11.73;85.40;101687.13;4985376;28;20027;-57
2022/10/13 03:13:55;;;;;;;23.27;13.80;;;;;;;11.79;85.37;101694.78;4970249;28;20041;-56
2022/10/13 03:16:21;;;;;;;20.23;14.15;;;;;;;11.77;85.21;101688.69;4980677;28;20031;-56
2022/10/13 03:18:46;;;;;;;26.05;14.80;;;;;;;11.79;85.31;101690.31;4972881;28;20374;-57
2022/10/13 03:21:11;;;;;;;23.50;14.57;;;;;;;11.76;85.60;101684.28;4952215;28;20086;-57
2022/10/13 03:23:37;;;;;;;19.77;14.35;;;;;;;11.78;85.42;101690.41;4939535;29;20039;-57
2022/10/13 03:26:03;;;;;;;21.48;14.38;;;;;;;11.79;85.42;101685.00;4951574;29;20397;-57
2022/10/13 03:28:29;;;;;;;19.90;15.25;;;;;;;11.71;85.63;101679.22;4951238;28;20043;-56
2022/10/13 03:31:03;;;;;;;21.52;13.68;;;;;;;11.80;85.34;101693.84;4953631;28;20544;-58
2022/10/13 03:33:29;;;;;;;23.58;14.40;;;;;;;11.78;85.55;101687.72;4952913;28;20122;-57
2022/10/13 03:35:58;;;;;;;23.00;14.75;;;;;;;11.79;85.61;101678.78;4942785;29;20102;-57
2022/10/13 03:38:24;;;;;;;21.75;14.32;;;;;;;11.80;85.38;101673.38;4934422;29;20062;-57
2022/10/13 03:40:49;;;;;;;26.50;15.00;;;;;;;11.79;85.74;101673.44;4934722;28;20032;-57
2022/10/13 03:43:15;;;;;;;22.48;15.48;;;;;;;11.80;85.84;101681.38;4949528;28;20031;-57
2022/10/13 03:45:40;;;;;;;22.15;15.13;;;;;;;11.80;85.34;101673.38;4951602;29;20031;-57
2022/10/13 03:48:05;;;;;;;21.77;14.60;;;;;;;11.82;85.67;101682.16;4953538;29;20067;-57
2022/10/13 03:50:34;;;;;;;21.85;15.02;;;;;;;11.78;85.46;101664.59;4935727;29;20437;-57
2022/10/13 03:52:59;;;;;;;20.17;13.95;;;;;;;11.83;85.30;101672.34;4953017;29;20039;-57
2022/10/13 03:55:24;;;;;;;17.17;13.25;;;;;;;11.86;85.40;101666.03;4941413;28;20053;-57
2022/10/13 03:57:50;;;;;;;23.95;14.93;;;;;;;11.85;85.36;101665.16;4942271;28;20107;-57
2022/10/13 04:00:15;;;;;;;22.98;14.40;;;;;;;11.86;85.42;101660.69;4941311;28;20046;-58
2022/10/13 04:02:41;;;;;;;22.75;14.80;;;;;;;11.85;85.57;101657.16;4951223;28;20072;-57
2022/10/13 04:05:07;;;;;;;23.20;14.02;;;;;;;11.82;85.60;101651.97;4950944;28;20035;-56
2022/10/13 04:07:32;;;;;;;24.63;15.02;;;;;;;11.84;85.55;101647.41;4951993;29;20042;-57
2022/10/13 04:09:57;;;;;;;20.60;14.13;;;;;;;11.84;85.46;101647.41;4951284;29;20418;-57
2022/10/13 04:12:23;;;;;;;23.05;14.52;;;;;;;11.83;85.77;101643.03;4951287;28;20504;-57
2022/10/13 04:14:48;;;;;;;22.77;14.02;;;;;;;11.85;85.53;101651.81;4950859;28;20039;-57
2022/10/13 04:17:16;;;;;;;22.33;12.68;;;;;;;11.86;85.52;101650.03;4949165;29;20387;-57
2022/10/13 04:19:42;;;;;;;22.42;13.95;;;;;;;11.86;85.59;101648.22;4951478;29;20488;-58
2022/10/13 04:22:07;;;;;;;23.05;14.80;;;;;;;11.86;85.92;101650.91;4963481;28;20130;-57
2022/10/13 04:24:32;;;;;;;26.17;14.95;;;;;;;11.85;86.00;101643.81;4978072;28;20026;-56
2022/10/13 04:26:58;;;;;;;23.60;14.88;;;;;;;11.85;86.07;101635.81;4990615;28;20039;-57
2022/10/13 04:29:25;;;;;;;26.67;15.40;;;;;;;11.81;86.17;101627.13;4973169;28;20062;-57
2022/10/13 04:31:53;;;;;;;24.55;15.07;;;;;;;11.83;86.15;101625.22;4974402;28;20572;-57
2022/10/13 04:34:19;;;;;;;22.40;14.85;;;;;;;11.81;86.02;101620.94;4991006;28;20041;-57
2022/10/13 04:36:45;;;;;;;27.20;14.68;;;;;;;11.79;86.23;101625.47;4973158;28;20030;-57
2022/10/13 04:39:10;;;;;;;25.65;14.15;;;;;;;11.82;86.39;101630.63;4991024;28;20034;-57
2022/10/13 04:41:36;;;;;;;23.73;15.15;;;;;;;11.84;86.31;101636.75;4973515;28;20030;-57
2022/10/13 04:44:01;;;;;;;24.92;14.45;;;;;;;11.80;86.60;101625.41;4985976;28;20030;-57
2022/10/13 04:46:27;;;;;;;24.13;14.85;;;;;;;11.83;86.55;101627.03;4982919;28;20477;-57
2022/10/13 04:48:56;;;;;;;23.48;13.80;;;;;;;11.83;86.46;101619.03;4971713;28;20072;-57
2022/10/13 04:51:23;;;;;;;22.25;14.68;;;;;;;11.84;86.04;101618.09;4977957;28;20031;-57
2022/10/13 04:53:53;;;;;;;22.20;14.52;;;;;;;11.87;85.75;101635.75;4973256;28;20413;-57
2022/10/13 04:56:19;;;;;;;21.02;14.00;;;;;;;11.86;86.42;101636.72;4972938;28;20023;-57
2022/10/13 04:58:44;;;;;;;20.15;14.52;;;;;;;11.87;85.65;101638.44;4986912;28;20129;-56
2022/10/13 05:01:13;;;;;;;27.38;14.80;;;;;;;11.86;85.80;101623.38;4990249;28;20034;-56
2022/10/13 05:03:39;;;;;;;24.08;14.60;;;;;;;11.89;85.56;101625.88;4987141;28;20121;-56
2022/10/13 05:06:12;;;;;;;21.60;14.23;;;;;;;11.87;85.63;101617.94;4977455;28;20054;-56
2022/10/13 05:08:37;;;;;;;28.05;15.50;;;;;;;11.87;85.74;101625.09;4990887;28;20033;-57
2022/10/13 05:11:04;;;;;;;21.00;14.45;;;;;;;11.86;85.62;101624.25;4959996;28;20034;-57
2022/10/13 05:13:29;;;;;;;24.90;14.88;;;;;;;11.88;85.38;101625.00;4980481;28;20109;-56
2022/10/13 05:15:55;;;;;;;21.00;14.55;;;;;;;11.86;85.67;101621.56;4953888;28;20118;-55
2022/10/13 05:18:21;;;;;;;25.63;14.95;;;;;;;11.87;85.91;101620.63;4986065;28;20370;-57
2022/10/13 05:20:47;;;;;;;25.48;14.98;;;;;;;11.93;85.59;101619.41;4979765;28;20059;-57
2022/10/13 05:23:14;;;;;;;29.25;15.18;;;;;;;11.88;85.90;101633.00;4990686;28;20142;-57
2022/10/13 05:25:39;;;;;;;22.08;14.00;;;;;;;11.88;85.76;101635.66;4989775;28;20034;-58
2022/10/13 05:28:06;;;;;;;26.65;14.30;;;;;;;11.86;85.72;101628.72;4971751;28;20037;-57
2022/10/13 05:30:32;;;;;;;23.65;15.77;;;;;;;11.84;85.91;101639.41;4989546;28;20381;-57
2022/10/13 05:32:58;;;;;;;20.13;14.43;;;;;;;11.83;85.77;101638.56;4973335;28;20469;-57
2022/10/13 05:35:24;;;;;;;24.17;14.73;;;;;;;11.81;86.00;101637.78;4989565;28;20026;-57
2022/10/13 05:37:50;;;;;;;22.48;15.50;;;;;;;11.82;85.99;101631.53;4972021;28;20033;-57
2022/10/13 05:40:16;;;;;;;26.33;15.23;;;;;;;11.82;86.26;101628.84;4989742;28;20419;-57
2022/10/13 05:42:41;;;;;;;23.92;14.80;;;;;;;11.81;86.55;101624.44;4989674;28;20044;-58
2022/10/13 05:45:09;;;;;;;21.30;15.15;;;;;;;11.81;86.25;101629.78;4989063;28;20056;-57
2022/10/13 05:47:34;;;;;;;23.38;14.68;;;;;;;11.78;86.87;101626.44;4980271;28;20023;-56
2022/10/13 05:50:00;;;;;;;20.63;14.43;;;;;;;11.80;86.64;101624.56;4976384;28;20030;-56
2022/10/13 05:52:27;;;;;;;20.67;13.75;;;;;;;11.74;86.51;101611.56;4989594;28;20478;-57
2022/10/13 05:54:59;;;;;;;22.42;14.13;;;;;;;11.75;86.56;101616.81;4989341;28;20117;-57
2022/10/13 05:57:29;;;;;;;21.35;14.68;;;;;;;11.77;86.90;101632.72;4957707;28;20492;-57
2022/10/13 06:00:01;;;;;;;22.95;14.55;;;;;;;11.79;86.77;101631.69;4989192;28;20034;-57
2022/10/13 06:02:33;;;;;;;22.58;14.75;;;;;;;11.83;86.50;101635.91;4985206;28;20034;-57
2022/10/13 06:05:00;;;;;;;23.80;15.38;;;;;;;11.78;86.31;101616.63;4966130;28;20068;-57
2022/10/13 06:07:28;;;;;;;23.77;14.40;;;;;;;11.87;86.37;101622.44;4978513;28;20018;-57
2022/10/13 06:09:56;;;;;;;18.60;13.15;;;;;;;11.83;85.98;101611.06;4978684;28;20058;-56
2022/10/13 06:12:24;;;;;;;22.58;15.05;;;;;;;11.89;85.98;101617.88;4966120;28;20531;-57
2022/10/13 06:14:49;;;;;;;22.00;15.43;;;;;;;11.91;85.96;101613.31;4956816;28;20039;-56
2022/10/13 06:17:15;;;;;;;26.52;15.88;;;;;;;11.86;85.98;101608.25;4983112;28;20114;-58
2022/10/13 06:19:41;;;;;;;25.30;15.60;;;;;;;11.92;86.03;101601.72;4954653;28;20477;-57
2022/10/13 06:22:07;;;;;;;24.40;14.60;;;;;;;11.91;86.17;101598.19;4979815;28;20065;-57
2022/10/13 06:24:33;;;;;;;22.20;14.70;;;;;;;11.91;86.79;101605.31;4987838;28;20027;-57
2022/10/13 06:26:58;;;;;;;22.48;15.15;;;;;;;11.92;86.05;101599.91;4980885;28;20504;-57
2022/10/13 06:29:23;;;;;;;22.73;14.18;;;;;;;11.97;85.88;101611.19;4970727;28;20481;-57
2022/10/13 06:31:49;;;;;;;26.35;15.75;;;;;;;11.96;86.01;101611.25;4988857;28;20045;-57
2022/10/13 06:34:15;;;;;;;23.90;15.02;;;;;;;11.93;86.39;101611.41;4989237;28;20113;-57
2022/10/13 06:36:42;;;;;;;29.75;15.00;;;;;;;11.97;86.45;101604.94;4972387;28;20031;-57
2022/10/13 06:39:09;;;;;;;22.63;14.88;;;;;;;11.98;86.75;101596.03;4989687;28;20167;-57
2022/10/13 06:41:34;;;;;;;28.70;15.57;;;;;;;11.99;86.46;101611.06;4959516;28;20030;-57
2022/10/13 06:44:00;;;;;;;29.60;15.30;;;;;;;11.99;86.28;101605.75;4983163;28;20033;-57
2022/10/13 06:46:28;;;;;;;27.40;15.40;;;;;;;11.99;85.95;101603.94;4971120;28;20322;-57
2022/10/13 06:48:53;;;;;;;24.88;15.25;;;;;;;11.98;86.06;101612.03;4987939;28;20035;-57
2022/10/13 06:51:18;;;;;;;23.83;14.88;;;;;;;11.96;86.17;101601.44;4988426;28;20038;-57
2022/10/13 06:53:46;;;;;;;27.50;16.05;;;;;;;12.04;86.13;101603.69;4988275;28;20057;-57
2022/10/13 06:56:13;;;;;;;25.30;15.10;;;;;;;12.06;86.01;101601.78;4969057;28;20027;-56
2022/10/13 06:58:38;;;;;;;32.47;16.35;;;;;;;12.05;85.84;101600.06;4969653;28;20030;-61
2022/10/13 07:01:04;;;;;;;26.80;15.18;;;;;;;12.03;85.97;101612.63;4970455;28;20029;-57
2022/10/13 07:03:30;;;;;;;24.60;17.23;;;;;;;12.03;85.89;101586.81;4971652;28;20504;-56
2022/10/13 07:06:02;;;;;;;26.98;16.67;;;;;;;12.05;85.93;101594.72;4987608;28;20050;-57
2022/10/13 07:08:28;;;;;;;27.95;16.52;;;;;;;11.97;85.83;101587.19;4989513;28;20433;-57
2022/10/13 07:10:53;;;;;;;27.83;16.85;;;;;;;12.00;86.00;101597.66;4988759;28;20045;-56
2022/10/13 07:13:19;;;;;;;26.00;16.52;;;;;;;12.01;86.33;101602.03;4989316;28;20023;-56
2022/10/13 07:15:46;;;;;;;28.83;18.13;;;;;;;12.02;86.37;101602.91;4988367;28;20476;-57
2022/10/13 07:18:12;;;;;;;33.63;17.63;;;;;;;12.01;85.82;101606.53;4988248;28;20111;-57
2022/10/13 07:20:37;;;;;;;27.02;17.58;;;;;;;12.02;86.29;101608.22;4987214;28;20082;-56
2022/10/13 07:23:02;;;;;;;35.30;18.67;;;;;;;12.05;86.04;101602.72;4971748;28;20026;-57
2022/10/13 07:25:29;;;;;;;25.25;17.88;;;;;;;12.08;86.11;101596.34;4989196;28;20107;-57
2022/10/13 07:27:54;;;;;;;28.17;18.60;;;;;;;12.11;85.99;101593.50;4987291;28;20038;-57
2022/10/13 07:30:20;;;;;;;28.02;18.00;;;;;;;12.15;86.36;101603.06;4989037;28;20385;-58
2022/10/13 07:32:45;;;;;;;31.40;18.15;;;;;;;12.16;85.85;101605.63;4987478;28;20034;-57
2022/10/13 07:35:11;;;;;;;28.30;18.65;;;;;;;12.17;86.41;101610.00;4987843;28;20500;-57
2022/10/13 07:37:37;;;;;;;27.10;18.27;;;;;;;12.15;85.92;101598.59;4989163;28;20027;-57
2022/10/13 07:40:04;;;;;;;33.80;19.40;;;;;;;12.22;85.72;101607.09;4970462;28;20026;-57
2022/10/13 07:42:29;;;;;;;35.88;19.05;;;;;;;12.21;85.92;101603.56;5002461;28;20426;-57
2022/10/13 07:44:55;;;;;;;30.92;19.00;;;;;;;12.25;85.95;101601.59;4987578;28;20030;-57
2022/10/13 07:47:20;;;;;;;27.23;19.95;;;;;;;12.26;85.43;101601.50;4971337;28;20058;-57
2022/10/13 07:49:46;;;;;;;31.95;18.90;;;;;;;12.31;85.67;101597.69;4969720;28;20031;-57
2022/10/13 07:52:11;;;;;;;35.28;19.42;;;;;;;12.30;85.32;101596.84;4974023;28;20112;-57
2022/10/13 07:54:39;;;;;;;31.88;19.40;;;;;;;12.38;85.27;101601.72;4988615;28;20022;-57
2022/10/13 07:57:04;;;;;;;30.17;19.27;;;;;;;12.41;85.17;101607.75;4988902;28;20027;-56
2022/10/13 07:59:33;;;;;;;29.88;18.85;;;;;;;12.45;85.12;101608.44;4988413;28;20030;-57
2022/10/13 08:02:00;;;;;;;24.00;18.10;;;;;;;12.49;84.45;101601.94;4990307;28;20026;-58
2022/10/13 08:04:33;;;;;;;32.80;19.73;;;;;;;12.55;84.54;101598.06;4988206;28;20083;-57
2022/10/13 08:06:58;;;;;;;28.33;18.70;;;;;;;12.57;84.94;101604.19;4969150;28;20236;-57
2022/10/13 08:09:25;;;;;;;26.30;18.42;;;;;;;12.58;84.50;101601.41;4990991;28;20034;-58
2022/10/13 08:11:50;;;;;;;28.50;17.83;;;;;;;12.62;84.26;101607.44;4991721;28;20018;-58
2022/10/13 08:14:17;;;;;;;26.15;17.45;;;;;;;12.62;84.09;101602.09;4987798;28;20030;-57
2022/10/13 08:16:45;;;;;;;32.00;17.77;;;;;;;12.61;84.75;101603.88;4974011;28;20019;-57
2022/10/13 08:19:15;;;;;;;26.77;17.70;;;;;;;12.64;84.15;101605.50;4977292;28;20026;-57
2022/10/13 08:21:41;;;;;;;27.70;17.60;;;;;;;12.66;84.25;101603.63;4989926;28;20099;-57
2022/10/13 08:24:09;;;;;;;29.75;16.98;;;;;;;12.67;83.88;101591.97;4954484;28;20031;-57
2022/10/13 08:26:35;;;;;;;26.13;17.02;;;;;;;12.76;83.69;101596.75;4989231;28;20152;-57
2022/10/13 08:29:03;;;;;;;29.92;17.25;;;;;;;12.83;83.27;101587.44;4990875;28;20113;-57
2022/10/13 08:31:28;;;;;;;25.02;16.98;;;;;;;12.91;84.17;101595.88;4990397;28;20725;-57
2022/10/13 08:33:54;;;;;;;26.10;16.25;;;;;;;12.96;83.64;101579.53;4990624;28;20034;-57
2022/10/13 08:36:19;;;;;;;28.02;16.10;;;;;;;13.01;83.68;101584.63;4990928;28;20027;-57
2022/10/13 08:38:45;;;;;;;29.42;16.83;;;;;;;13.00;82.48;101585.53;4972669;28;20049;-57
2022/10/13 08:41:20;;;;;;;26.60;17.77;;;;;;;12.99;82.78;101595.38;4989608;28;20026;-57
2022/10/13 08:43:52;;;;;;;29.27;17.33;;;;;;;13.01;82.52;101588.13;4972464;28;20026;-57
2022/10/13 08:46:48;;;;;;;27.77;16.30;;;;;;;13.04;82.55;101595.97;4964474;28;20184;-57
2022/10/13 08:49:15;;;;;;;25.35;16.92;;;;;;;12.99;82.22;101583.84;4992922;28;20077;-56
2022/10/13 08:51:41;;;;;;;26.83;16.08;;;;;;;13.04;82.47;101598.63;4989544;28;20478;-57
2022/10/13 08:54:07;;;;;;;22.80;15.27;;;;;;;13.07;82.19;101594.91;4990227;28;20113;-57
2022/10/13 08:56:34;;;;;;;28.13;15.93;;;;;;;13.11;82.70;101588.41;4972410;28;20487;-57
2022/10/13 08:59:03;;;;;;;23.60;16.25;;;;;;;13.08;81.77;101589.47;4989401;28;20060;-57
2022/10/13 09:01:36;;;;;;;22.50;17.30;;;;;;;13.16;81.80;101586.34;4979855;28;20072;-57
2022/10/13 09:04:01;;;;;;;22.73;14.57;;;;;;;13.18;82.13;101579.94;4989930;28;20030;-56
2022/10/13 09:06:32;;;;;;;25.40;14.95;;;;;;;13.21;81.83;101575.34;4972661;28;20041;-57
2022/10/13 09:09:05;;;;;;;23.73;16.33;;;;;;;13.20;81.54;101579.84;4990586;28;20413;-57
2022/10/13 09:11:34;;;;;;;29.27;15.55;;;;;;;13.24;81.79;101583.19;4990832;28;20034;-56
2022/10/13 09:14:06;;;;;;;27.33;15.70;;;;;;;13.22;81.81;101583.28;4971976;28;20117;-57
2022/10/13 09:16:40;;;;;;;24.63;14.50;;;;;;;13.21;81.99;101576.22;4990562;28;20057;-57
2022/10/13 09:19:27;;;;;;;25.25;16.23;;;;;;;13.22;82.07;101585.09;4989043;28;20034;-57
2022/10/13 09:21:56;;;;;;;26.58;15.32;;;;;;;13.19;81.83;101578.97;4986913;28;20498;-57
2022/10/13 09:24:26;;;;;;;22.30;15.40;;;;;;;13.21;81.86;101578.91;4988197;28;20034;-57
2022/10/13 09:27:11;;;;;;;24.67;16.50;;;;;;;13.20;81.57;101579.84;4990278;28;20460;-56
2022/10/13 09:29:36;;;;;;;25.25;16.65;;;;;;;13.19;81.59;101583.47;4989885;28;20524;-56
2022/10/13 09:32:17;;;;;;;27.88;17.48;;;;;;;13.21;81.84;101570.00;4985502;28;20082;-57
2022/10/13 09:34:43;;;;;;;29.38;16.98;;;;;;;13.22;81.89;101571.75;4969985;28;20109;-57
2022/10/13 09:37:26;;;;;;;24.83;17.25;;;;;;;13.25;81.59;101566.19;4989095;28;20097;-57
2022/10/13 09:40:20;;;;;;;32.33;17.38;;;;;;;13.28;81.34;101569.56;4988927;28;20125;-57
2022/10/13 09:42:51;;;;;;;25.75;16.63;;;;;;;13.29;81.95;101573.94;5005189;28;20026;-57
2022/10/13 09:45:21;;;;;;;24.23;16.42;;;;;;;13.26;81.70;101559.94;4972107;28;20045;-57
2022/10/13 09:47:53;;;;;;;24.25;16.10;;;;;;;13.30;81.50;101575.69;4970097;28;20505;-57
2022/10/13 09:50:25;;;;;;;27.95;17.38;;;;;;;13.29;81.87;101571.28;4987923;28;20034;-57
2022/10/13 09:52:51;;;;;;;27.70;16.10;;;;;;;13.27;84.00;101564.34;4988867;28;20045;-57
2022/10/13 09:55:34;;;;;;;28.15;17.38;;;;;;;13.27;82.58;101569.69;4988993;28;20030;-56
2022/10/13 09:58:13;;;;;;;24.27;15.82;;;;;;;13.22;83.04;101553.88;4988712;28;20083;-56
2022/10/13 10:00:40;;;;;;;23.58;16.23;;;;;;;13.21;83.88;101567.31;5001468;28;20026;-57
2022/10/13 10:03:15;;;;;;;24.73;16.45;;;;;;;13.24;84.40;101562.69;4972194;28;20030;-57
2022/10/13 10:05:44;;;;;;;27.58;17.38;;;;;;;13.21;83.94;101567.31;4969421;28;20031;-57
2022/10/13 10:08:26;;;;;;;28.10;16.80;;;;;;;13.18;84.22;101557.72;4972167;28;20069;-57
2022/10/13 10:10:53;;;;;;;25.23;15.80;;;;;;;13.15;85.47;101558.78;5002413;28;20033;-56
2022/10/13 10:13:19;;;;;;;27.95;16.83;;;;;;;13.16;85.17;101563.16;4987768;28;20026;-56
2022/10/13 10:16:03;;;;;;;22.40;16.27;;;;;;;13.15;85.97;101552.56;4979479;28;20060;-57
2022/10/13 10:18:48;;;;;;;22.05;15.80;;;;;;;13.13;85.42;101551.81;4989457;28;20041;-56
2022/10/13 10:21:28;;;;;;;26.15;17.63;;;;;;;13.10;86.36;101554.66;4988276;28;20129;-56
2022/10/13 10:23:54;;;;;;;22.63;16.52;;;;;;;13.09;85.78;101545.81;4967887;28;20046;-56
2022/10/13 10:26:28;;;;;;;24.52;16.27;;;;;;;13.12;85.90;101548.28;4988444;28;20042;-56
2022/10/13 10:29:12;;;;;;;26.45;16.85;;;;;;;13.15;86.95;101541.88;4971459;28;20022;-57
2022/10/13 10:31:49;;;;;;;27.90;17.27;;;;;;;13.18;87.63;101542.56;4988691;28;20030;-57
2022/10/13 10:34:36;;;;;;;25.10;16.67;;;;;;;13.18;87.92;101539.03;4985446;28;20481;-57
2022/10/13 10:37:07;;;;;;;25.60;16.92;;;;;;;13.13;86.46;101543.78;4989041;28;20095;-57
2022/10/13 10:39:41;;;;;;;20.63;15.32;;;;;;;13.17;86.79;101553.31;4988900;28;20022;-56
2022/10/13 10:42:32;;;;;;;23.52;16.30;;;;;;;13.19;87.54;101543.41;4988925;28;20390;-56
2022/10/13 10:45:02;;;;;;;25.17;15.63;;;;;;;13.24;86.79;101545.78;4988810;28;20427;-56
2022/10/13 10:47:41;;;;;;;27.88;16.80;;;;;;;13.29;86.90;101546.38;4988414;28;20038;-56
2022/10/13 10:50:07;;;;;;;21.52;16.00;;;;;;;13.30;87.20;101546.28;4987950;28;20031;-57
2022/10/13 10:53:01;;;;;;;23.80;16.92;;;;;;;13.36;87.95;101545.91;5002099;28;20041;-57
2022/10/13 10:55:39;;;;;;;29.75;16.92;;;;;;;13.37;87.38;101544.09;4987491;28;20105;-56
2022/10/13 10:58:32;;;;;;;24.73;15.05;;;;;;;13.40;87.24;101546.56;4987667;28;20038;-56
2022/10/13 11:01:24;;;;;;;24.02;15.77;;;;;;;13.41;86.26;101537.56;4983189;28;20117;-56
2022/10/13 11:03:55;;;;;;;26.63;15.05;;;;;;;13.43;86.16;101532.16;4980532;28;20062;-56
2022/10/13 11:06:22;;;;;;;25.60;14.98;;;;;;;13.39;86.72;101529.66;4995936;28;20030;-57
2022/10/13 11:08:48;;;;;;;24.38;15.20;;;;;;;13.38;87.15;101521.75;4989340;28;20122;-57
2022/10/13 11:11:24;;;;;;;22.63;15.90;;;;;;;13.48;86.80;101538.06;4988768;28;20026;-57
2022/10/13 11:14:01;;;;;;;24.33;14.93;;;;;;;13.51;87.33;101535.19;4988297;28;20605;-57
2022/10/13 11:16:58;;;;;;;22.08;15.57;;;;;;;13.52;87.32;101519.03;4988039;28;20030;-57
2022/10/13 11:19:29;;;;;;;20.00;13.57;;;;;;;13.45;86.61;101525.75;4987213;28;20029;-57
2022/10/13 11:21:57;;;;;;;21.25;14.75;;;;;;;13.45;87.72;101522.22;4989042;28;20501;-57